首页
METAR-TAF:

METAR-TAF

机场 :

基隆拿國際機場

基隆拿, 不列颠哥伦比亚, 加拿大

纬度: 49-58N, 经度: 119-23W, 海拔: 430米

当前天气观测

该预报发布于24分钟前的13:00 UTC
静风
温度 7°C
湿度 81%
气压 1014 hPa
能見度: 14.5公里
天空无云

METAR: CYLW 221300Z AUTO 00000KT 9SM CLR 07/04 A2995 RMK SLP149

时间: 06:24 (13:24 UTC)

预报

该预报发布于46分钟前的12:38 UTC
预报有效从22日的 13点(UTC)到 23日的 01点(UTC)
风速3节,风向多变
能見度: 10公里
散云层高于10000英尺
从 22日的 1800点(UTC)
风速6节,风向
能見度: 10公里
散云层高于8000英尺
短暂存在
从 22日的 18点(UTC)到 23日的 01点(UTC)
能見度: 10公里
多云层高于8000英尺
附近有阵雨

TAF: CYLW 221238Z 2213/2301 VRB03KT P6SM SCT100 FM221800 35006KT P6SM SCT080 TEMPO 2218/2301 P6SM VCSH BKN080 RMK FCST BASED ON AUTO OBS. NXT FCST BY 221900Z

超过4000个机场的气象观测和天气预报(METAR&TAF报告)。

可查询的气象台以黄色和红色小点在地图上表示。

将鼠标移到小点上方,可查看气象台名称。

然后点击查看天气观测和预报。

如需切换地图:点击带黑十字的绿色按钮放大地图;点击带横线的绿色按钮缩小地图;或者点击绿色箭头查看邻近地区的地图。


METAR-TAF: